createdAt,value
2023-02-09T00:00:15.839Z,-6.50
2023-02-09T00:04:19.572Z,-6.50
2023-02-09T00:08:21.460Z,-6.40
2023-02-09T00:12:41.965Z,-6.70
2023-02-09T00:16:44.170Z,-6.70
2023-02-09T00:20:46.436Z,-6.70
2023-02-09T00:24:48.580Z,-6.70
2023-02-09T00:28:50.520Z,-6.80
2023-02-09T00:32:55.327Z,-6.80
2023-02-09T00:36:57.353Z,-6.90
2023-02-09T00:40:59.342Z,-6.70
2023-02-09T00:45:01.257Z,-6.70
2023-02-09T00:49:03.950Z,-6.70
2023-02-09T00:53:05.830Z,-6.80
2023-02-09T00:57:07.806Z,-6.90
2023-02-09T01:01:13.582Z,-6.80
2023-02-09T01:05:15.803Z,-6.90
2023-02-09T01:09:19.661Z,-6.70
2023-02-09T01:13:21.679Z,-6.80
2023-02-09T01:17:24.863Z,-6.80
2023-02-09T01:21:26.794Z,-6.70
2023-02-09T01:25:28.748Z,-7.10
2023-02-09T01:29:30.627Z,-7.00
2023-02-09T01:33:32.665Z,-7.20
2023-02-09T01:37:35.909Z,-7.10
2023-02-09T01:41:38.187Z,-7.10
2023-02-09T01:46:06.651Z,-7.00
2023-02-09T01:50:09.128Z,-7.10
2023-02-09T01:54:17.121Z,-7.10
2023-02-09T01:58:22.306Z,-7.10
2023-02-09T02:02:24.675Z,-7.10
2023-02-09T02:06:26.776Z,-7.10
2023-02-09T02:10:29.533Z,-7.20
2023-02-09T02:14:36.041Z,-7.10
2023-02-09T02:18:56.075Z,-7.00
2023-02-09T02:23:08.457Z,-7.00
2023-02-09T02:27:19.406Z,-7.30
2023-02-09T02:31:42.853Z,-7.40
2023-02-09T02:36:14.696Z,-7.70
2023-02-09T02:40:25.913Z,-7.90
2023-02-09T02:44:30.366Z,-7.60
2023-02-09T02:48:41.604Z,-7.40
2023-02-09T02:52:47.045Z,-7.40
2023-02-09T02:56:59.343Z,-7.50
2023-02-09T03:01:02.950Z,-7.50
2023-02-09T03:05:07.145Z,-7.50
2023-02-09T03:09:09.281Z,-7.70
2023-02-09T03:13:32.436Z,-8.00
2023-02-09T03:22:05.720Z,-7.70
2023-02-09T03:26:13.150Z,-7.70
2023-02-09T03:30:17.467Z,-7.50
2023-02-09T03:34:21.152Z,-7.90
2023-02-09T03:38:23.794Z,-7.50
2023-02-09T03:42:25.820Z,-7.60
2023-02-09T03:46:27.857Z,-8.10
2023-02-09T03:50:30.148Z,-8.00
2023-02-09T03:54:33.228Z,-7.80
2023-02-09T03:58:36.602Z,-7.80
2023-02-09T04:02:38.623Z,-7.80
2023-02-09T04:06:40.578Z,-7.70
2023-02-09T04:10:42.497Z,-7.70
2023-02-09T04:14:44.383Z,-7.80
2023-02-09T04:18:46.798Z,-7.60
2023-02-09T04:22:48.692Z,-7.70
2023-02-09T04:26:50.664Z,-7.60
2023-02-09T04:30:55.176Z,-7.70
2023-02-09T04:34:57.055Z,-7.70
2023-02-09T04:38:58.982Z,-7.60
2023-02-09T04:43:00.910Z,-7.90
2023-02-09T04:47:02.957Z,-8.20
2023-02-09T04:51:05.045Z,-7.90
2023-02-09T04:55:07.115Z,-7.90
2023-02-09T04:59:28.520Z,-7.80
2023-02-09T05:03:31.239Z,-7.80
2023-02-09T05:07:33.174Z,-8.20
2023-02-09T05:11:35.171Z,-8.30
2023-02-09T05:15:37.131Z,-7.90
2023-02-09T05:19:39.125Z,-7.80
2023-02-09T05:23:41.733Z,-7.70
2023-02-09T05:27:43.535Z,-7.80
2023-02-09T05:31:45.461Z,-7.70
2023-02-09T05:35:47.458Z,-7.60
2023-02-09T05:39:51.119Z,-7.60
2023-02-09T05:43:53.038Z,-7.60
2023-02-09T05:47:54.992Z,-7.80
2023-02-09T05:51:56.909Z,-7.90
2023-02-09T05:55:58.813Z,-7.80
2023-02-09T06:00:00.877Z,-7.90
2023-02-09T06:04:02.933Z,-7.90
2023-02-09T06:08:05.024Z,-7.80
2023-02-09T06:12:07.013Z,-7.90
2023-02-09T06:16:09.207Z,-8.00
2023-02-09T06:20:11.755Z,-8.00
2023-02-09T06:24:14.968Z,-8.10
2023-02-09T06:28:16.972Z,-7.90
2023-02-09T06:32:18.996Z,-7.90
2023-02-09T06:36:20.971Z,-7.80
2023-02-09T06:40:22.914Z,-7.90
2023-02-09T06:44:24.856Z,-7.90
2023-02-09T06:48:26.859Z,-7.90
2023-02-09T06:52:29.162Z,-8.00
2023-02-09T06:56:31.217Z,-8.10
2023-02-09T07:00:33.138Z,-8.10
2023-02-09T07:04:35.058Z,-8.00
2023-02-09T07:08:37.013Z,-7.90
2023-02-09T07:12:40.742Z,-7.90
2023-02-09T07:16:42.666Z,-7.90
2023-02-09T07:20:44.920Z,-7.90
2023-02-09T07:24:47.099Z,-7.80
2023-02-09T07:28:48.999Z,-7.80
2023-02-09T07:32:50.936Z,-7.80
2023-02-09T07:36:52.866Z,-7.70
2023-02-09T07:40:54.818Z,-7.60
2023-02-09T07:44:56.746Z,-7.60
2023-02-09T07:49:01.268Z,-7.60
2023-02-09T07:53:03.434Z,-7.60
2023-02-09T07:57:05.362Z,-7.60
2023-02-09T08:01:10.759Z,-7.40
2023-02-09T08:05:20.647Z,-7.40
2023-02-09T08:09:22.661Z,-7.20
2023-02-09T08:13:27.516Z,-7.20
2023-02-09T08:17:29.665Z,-7.30
2023-02-09T08:21:35.532Z,-7.10
2023-02-09T08:25:37.888Z,-6.80
2023-02-09T08:29:40.070Z,-6.60
2023-02-09T08:33:43.195Z,-6.50
2023-02-09T08:37:45.142Z,-6.30
2023-02-09T08:41:47.132Z,-6.30
2023-02-09T08:45:49.513Z,-6.10
2023-02-09T08:49:51.868Z,-6.00
2023-02-09T08:53:53.886Z,-6.10
2023-02-09T08:57:56.034Z,-5.90
2023-02-09T09:01:57.969Z,-5.70
2023-02-09T09:06:05.612Z,-5.40
2023-02-09T09:10:11.309Z,-5.80
2023-02-09T09:14:13.216Z,-5.50
2023-02-09T09:18:15.184Z,-5.20
2023-02-09T09:22:17.169Z,-5.10
2023-02-09T09:26:19.232Z,-5.30
2023-02-09T09:30:21.314Z,-5.30
2023-02-09T09:34:23.290Z,-5.40
2023-02-09T09:38:25.210Z,-5.40
2023-02-09T09:42:40.347Z,-5.00
2023-02-09T09:46:46.982Z,-4.90
2023-02-09T09:50:51.338Z,-4.80
2023-02-09T09:54:53.322Z,-4.90
2023-02-09T09:58:55.517Z,-4.60
2023-02-09T10:02:57.507Z,-4.60
2023-02-09T10:07:02.656Z,-4.60
2023-02-09T10:11:09.247Z,-4.70
2023-02-09T10:15:29.455Z,-4.30
2023-02-09T10:19:32.670Z,-4.00
2023-02-09T10:23:46.802Z,-3.80
2023-02-09T10:27:48.779Z,-3.90
2023-02-09T10:31:59.990Z,-3.70
2023-02-09T10:36:06.022Z,-3.50
2023-02-09T10:40:18.176Z,-3.60
2023-02-09T10:44:35.635Z,-3.40
2023-02-09T10:48:43.596Z,-3.40
2023-02-09T10:52:58.030Z,-3.30
2023-02-09T10:57:01.901Z,-3.50
2023-02-09T11:01:10.183Z,-3.30
2023-02-09T11:05:27.390Z,-2.80
2023-02-09T11:09:39.507Z,-3.00
2023-02-09T11:13:42.467Z,-3.10
2023-02-09T11:17:53.097Z,-2.90
2023-02-09T11:22:13.306Z,-2.90
2023-02-09T11:26:30.402Z,-2.60
2023-02-09T11:31:23.297Z,-2.70
2023-02-09T11:35:40.100Z,-2.60
2023-02-09T11:39:54.351Z,-2.70
2023-02-09T11:44:01.115Z,-2.50
2023-02-09T11:48:09.506Z,-2.20
2023-02-09T11:52:16.807Z,-2.10
2023-02-09T11:56:21.453Z,-2.30
2023-02-09T12:00:27.962Z,-1.90
2023-02-09T12:04:49.051Z,-2.00
2023-02-09T12:09:03.199Z,-1.80
2023-02-09T12:13:33.117Z,-1.90
2023-02-09T12:17:50.102Z,-1.60
2023-02-09T12:21:52.016Z,-1.30
2023-02-09T12:25:55.265Z,-1.00
2023-02-09T12:29:57.216Z,-1.10
2023-02-09T12:33:59.077Z,-1.20
2023-02-09T12:38:19.059Z,-0.90
2023-02-09T12:42:26.747Z,-1.30
2023-02-09T12:46:28.672Z,-1.00
2023-02-09T12:50:45.092Z,-0.60
2023-02-09T12:54:58.310Z,-0.80
2023-02-09T12:59:15.879Z,-0.80
2023-02-09T13:03:20.351Z,-0.70
2023-02-09T13:07:33.134Z,-0.50
2023-02-09T13:11:49.253Z,-0.20
2023-02-09T13:15:51.039Z,-0.70
2023-02-09T13:20:13.599Z,-0.60
2023-02-09T13:24:18.632Z,-0.70
2023-02-09T13:28:26.689Z,-0.60
2023-02-09T13:32:43.757Z,-0.30
2023-02-09T13:36:55.034Z,-0.20
2023-02-09T13:40:58.357Z,-0.10
2023-02-09T13:45:00.621Z,0.30
2023-02-09T13:49:15.645Z,0.30
2023-02-09T13:53:19.920Z,-0.10
2023-02-09T13:57:33.357Z,-0.40
2023-02-09T14:01:37.284Z,-0.10
2023-02-09T14:06:08.164Z,0.10
2023-02-09T14:10:16.785Z,-0.50
2023-02-09T14:14:50.591Z,0.00
2023-02-09T14:19:02.890Z,0.10
2023-02-09T14:23:15.586Z,-0.30
2023-02-09T14:27:24.020Z,-0.10
2023-02-09T14:31:26.660Z,0.10
2023-02-09T14:35:31.361Z,0.00
2023-02-09T14:39:33.322Z,-0.20
2023-02-09T14:43:35.542Z,-0.10
2023-02-09T14:47:40.876Z,0.30
2023-02-09T14:51:43.752Z,0.60
2023-02-09T14:55:46.246Z,0.60
2023-02-09T14:59:48.446Z,0.50
2023-02-09T15:03:50.450Z,0.40
2023-02-09T15:07:55.868Z,0.40
2023-02-09T15:12:06.878Z,0.60
2023-02-09T15:16:09.654Z,0.50
2023-02-09T15:20:17.665Z,0.60
2023-02-09T15:24:19.625Z,0.60
2023-02-09T15:28:28.236Z,0.70
2023-02-09T15:32:30.544Z,0.70
2023-02-09T15:36:33.258Z,0.70
2023-02-09T15:41:02.272Z,0.70
2023-02-09T15:45:52.278Z,0.70
2023-02-09T15:49:54.287Z,0.50
2023-02-09T15:53:59.151Z,0.60
2023-02-09T15:58:01.313Z,0.50
2023-02-09T16:02:03.276Z,0.50
2023-02-09T16:06:19.806Z,0.60
2023-02-09T16:10:24.536Z,0.50
2023-02-09T16:14:27.337Z,0.50
2023-02-09T16:18:29.332Z,0.50
2023-02-09T16:22:31.275Z,0.40
2023-02-09T16:26:34.273Z,0.40
2023-02-09T16:30:46.629Z,0.30
2023-02-09T16:34:49.530Z,0.10
2023-02-09T16:38:51.540Z,-0.10
2023-02-09T16:42:54.083Z,-0.20
2023-02-09T16:46:58.814Z,-0.30
2023-02-09T16:51:00.804Z,-0.30
2023-02-09T16:55:06.472Z,-0.50
2023-02-09T16:59:12.647Z,-0.60
2023-02-09T17:03:16.391Z,-0.60
2023-02-09T17:07:18.378Z,-0.60
2023-02-09T17:11:25.811Z,-0.60
2023-02-09T17:15:31.660Z,-0.60
2023-02-09T17:19:46.874Z,-0.70
2023-02-09T17:23:50.586Z,-0.90
2023-02-09T17:27:52.925Z,-1.00
2023-02-09T17:31:54.948Z,-1.10
2023-02-09T17:36:28.746Z,-1.10
2023-02-09T17:40:22.305Z,-1.30
2023-02-09T17:44:44.686Z,-1.30
2023-02-09T17:48:48.585Z,-1.30
2023-02-09T17:52:52.176Z,-1.50
2023-02-09T17:56:53.965Z,-1.60
2023-02-09T18:00:56.686Z,-1.60
2023-02-09T18:04:58.626Z,-1.60
2023-02-09T18:09:19.153Z,-2.00
2023-02-09T18:13:21.505Z,-2.10
2023-02-09T18:17:23.508Z,-1.90
2023-02-09T18:21:25.508Z,-1.90
2023-02-09T18:25:33.229Z,-2.40
2023-02-09T18:29:35.683Z,-2.60
2023-02-09T18:33:38.247Z,-2.40
2023-02-09T18:37:40.140Z,-2.30
2023-02-09T18:41:42.496Z,-2.30
2023-02-09T18:45:45.029Z,-2.20
2023-02-09T18:49:47.295Z,-2.20
2023-02-09T18:53:51.248Z,-2.20
2023-02-09T18:57:53.185Z,-2.40
2023-02-09T19:01:55.179Z,-2.50
2023-02-09T19:05:57.127Z,-2.60
2023-02-09T19:09:59.078Z,-3.10
2023-02-09T19:14:19.401Z,-3.00
2023-02-09T19:18:21.373Z,-2.90
2023-02-09T19:22:23.313Z,-2.80
2023-02-09T19:26:25.286Z,-3.50
2023-02-09T19:30:28.549Z,-3.30
2023-02-09T19:34:32.801Z,-3.10
2023-02-09T19:38:34.761Z,-3.20
2023-02-09T19:42:37.058Z,-3.50
2023-02-09T19:46:39.941Z,-3.30
2023-02-09T19:50:41.965Z,-3.20
2023-02-09T19:54:43.905Z,-3.30
2023-02-09T19:58:46.201Z,-3.40
2023-02-09T20:02:48.752Z,-3.30
2023-02-09T20:06:50.884Z,-3.40
2023-02-09T20:10:52.881Z,-3.30
2023-02-09T20:14:55.137Z,-3.50
2023-02-09T20:18:57.249Z,-3.50
2023-02-09T20:22:59.215Z,-3.40
2023-02-09T20:27:01.366Z,-3.50
2023-02-09T20:31:03.438Z,-3.70
2023-02-09T20:35:05.902Z,-3.70
2023-02-09T20:39:10.942Z,-3.70
2023-02-09T20:43:31.470Z,-3.80
2023-02-09T20:47:33.418Z,-3.80
2023-02-09T20:51:35.377Z,-4.10
2023-02-09T20:55:37.392Z,-4.40
2023-02-09T20:59:39.784Z,-4.40
2023-02-09T21:03:41.962Z,-4.20
2023-02-09T21:07:44.261Z,-4.20
2023-02-09T21:11:46.165Z,-4.10
2023-02-09T21:15:48.860Z,-4.30
2023-02-09T21:19:50.858Z,-4.30
2023-02-09T21:23:53.345Z,-4.60
2023-02-09T21:27:59.778Z,-4.40
2023-02-09T21:32:03.956Z,-4.60
2023-02-09T21:36:07.436Z,-4.60
2023-02-09T21:40:12.127Z,-4.50
2023-02-09T21:44:15.086Z,-4.60
2023-02-09T21:48:17.062Z,-4.60
2023-02-09T21:52:19.007Z,-4.50
2023-02-09T21:56:21.011Z,-4.70
2023-02-09T22:00:23.062Z,-4.60
2023-02-09T22:04:25.817Z,-4.50
2023-02-09T22:08:29.042Z,-4.70
2023-02-09T22:12:31.133Z,-4.60
2023-02-09T22:16:33.119Z,-4.60
2023-02-09T22:20:35.322Z,-4.80
2023-02-09T22:24:37.718Z,-4.80
2023-02-09T22:28:40.136Z,-4.80
2023-02-09T22:32:42.120Z,-5.10
2023-02-09T22:36:44.048Z,-5.60
2023-02-09T22:40:46.203Z,-5.30
2023-02-09T22:44:48.218Z,-5.60
2023-02-09T22:48:55.417Z,-5.50
2023-02-09T22:52:57.359Z,-6.40
2023-02-09T22:56:59.287Z,-6.30
2023-02-09T23:01:01.311Z,-6.00
2023-02-09T23:05:03.953Z,-5.30
2023-02-09T23:09:07.610Z,-4.90
2023-02-09T23:13:09.500Z,-4.80
2023-02-09T23:17:11.521Z,-4.70
2023-02-09T23:21:13.548Z,-4.50
2023-02-09T23:25:15.755Z,-4.80
2023-02-09T23:29:18.466Z,-4.80
2023-02-09T23:33:20.457Z,-4.80
2023-02-09T23:37:36.728Z,-5.00
2023-02-09T23:41:39.705Z,-4.90
2023-02-09T23:45:41.620Z,-5.00
2023-02-09T23:49:44.797Z,-5.10
2023-02-09T23:53:47.882Z,-5.10
2023-02-09T23:57:50.035Z,-5.00
